Terminal Aerodrome Forecast
Issued by NWS

Home | Current Version | Previous Version | Text Only | Print | Product List | Glossary On
Versions: 1 2 3 4 5 6 7 8 9 10 11 12 13 14 15 16 17 18 19 20 21 22 23 24 25 26 27 28 29 30 31 32 33 34 35 36 37 38 39 40 41 42
000
FTUS43 KDVN 281918 AAA
TAFCID
TAF AMD
KCID 281918Z 2819/2918 07007KT P6SM SCT014 OVC026
      TEMPO 2819/2822 P6SM BKN019
     FM290000 07006KT P6SM SCT026 OVC040
     FM291200 08011KT 6SM BR OVC030
     FM291500 07014KT 4SM -RA BR OVC020=

USA.gov is the U.S. government's official web portal to all federal, state and local government web resources and services.